createdAt,value
2018-08-19T00:02:20.099Z,6.97
2018-08-19T00:04:59.010Z,8.03
2018-08-19T00:07:28.127Z,7.00
2018-08-19T00:09:57.459Z,7.90
2018-08-19T00:12:34.059Z,7.90
2018-08-19T00:15:04.556Z,8.20
2018-08-19T00:17:33.636Z,7.23
2018-08-19T00:20:04.395Z,6.77
2018-08-19T00:22:33.779Z,7.50
2018-08-19T00:25:02.909Z,7.43
2018-08-19T00:27:32.591Z,6.37
2018-08-19T00:30:01.691Z,6.90
2018-08-19T00:32:31.045Z,7.00
2018-08-19T00:35:00.376Z,7.97
2018-08-19T00:37:29.708Z,7.70
2018-08-19T00:40:04.637Z,6.47
2018-08-19T00:42:34.317Z,8.47
2018-08-19T00:45:03.652Z,6.47
2018-08-19T00:47:32.970Z,6.93
2018-08-19T00:50:03.565Z,6.40
2018-08-19T00:52:33.098Z,6.90
2018-08-19T00:55:02.469Z,6.57
2018-08-19T00:57:31.618Z,6.47
2018-08-19T01:00:00.700Z,6.70
2018-08-19T01:02:30.037Z,6.60
2018-08-19T01:04:59.392Z,7.00
2018-08-19T01:07:28.729Z,6.57
2018-08-19T01:09:58.288Z,6.43
2018-08-19T01:12:27.764Z,6.50
2018-08-19T01:14:57.120Z,6.10
2018-08-19T01:17:30.758Z,6.10
2018-08-19T01:20:07.310Z,6.63
2018-08-19T01:22:37.165Z,5.30
2018-08-19T01:25:06.814Z,5.50
2018-08-19T01:27:37.191Z,6.30
2018-08-19T01:30:08.848Z,6.03
2018-08-19T01:32:38.192Z,5.80
2018-08-19T01:35:07.504Z,5.60
2018-08-19T01:37:37.292Z,5.40
2018-08-19T01:40:09.201Z,5.90
2018-08-19T01:42:38.733Z,4.33
2018-08-19T01:45:09.360Z,5.53
2018-08-19T01:47:38.933Z,5.80
2018-08-19T01:50:09.533Z,6.40
2018-08-19T01:52:39.158Z,5.13
2018-08-19T01:55:09.172Z,5.10
2018-08-19T01:57:43.892Z,5.80
2018-08-19T02:00:13.927Z,4.90
2018-08-19T02:02:57.626Z,5.30
2018-08-19T02:05:27.535Z,5.13
2018-08-19T02:08:00.220Z,5.10
2018-08-19T02:10:31.250Z,4.73
2018-08-19T02:13:01.175Z,4.65
2018-08-19T02:15:31.497Z,5.10
2018-08-19T02:18:04.060Z,4.80
2018-08-19T02:20:42.020Z,4.67
2018-08-19T02:23:12.163Z,5.00
2018-08-19T02:25:46.541Z,4.70
2018-08-19T02:28:19.205Z,4.83
2018-08-19T02:30:53.707Z,4.93
2018-08-19T02:33:23.956Z,3.83
2018-08-19T02:36:00.422Z,5.07
2018-08-19T02:38:29.732Z,3.73
2018-08-19T02:40:59.062Z,4.77
2018-08-19T02:43:28.666Z,4.63
2018-08-19T02:45:57.959Z,4.73
2018-08-19T02:48:37.058Z,4.53
2018-08-19T02:51:06.340Z,5.00
2018-08-19T02:53:35.423Z,3.97
2018-08-19T02:56:04.757Z,4.97
2018-08-19T02:58:34.094Z,4.30
2018-08-19T03:01:03.424Z,4.03
2018-08-19T03:03:32.977Z,4.07
2018-08-19T03:06:03.181Z,3.60
2018-08-19T03:08:32.607Z,3.95
2018-08-19T03:11:01.935Z,4.42
2018-08-19T03:13:31.242Z,4.77
2018-08-19T03:16:00.570Z,4.47
2018-08-19T03:18:30.096Z,4.40
2018-08-19T03:20:59.644Z,3.58
2018-08-19T03:23:29.110Z,4.10
2018-08-19T03:25:58.372Z,4.05
2018-08-19T03:28:27.668Z,3.27
2018-08-19T03:31:02.007Z,3.73
2018-08-19T03:33:31.760Z,4.53
2018-08-19T03:36:00.900Z,3.47
2018-08-19T03:38:30.010Z,3.87
2018-08-19T03:40:59.719Z,4.70
2018-08-19T03:43:29.106Z,4.40
2018-08-19T03:46:00.542Z,3.42
2018-08-19T03:48:29.754Z,3.43
2018-08-19T03:50:58.844Z,4.42
2018-08-19T03:53:28.184Z,4.00
2018-08-19T03:55:57.723Z,3.73
2018-08-19T03:58:27.152Z,4.53
2018-08-19T04:00:56.502Z,3.90
2018-08-19T04:03:26.602Z,4.67
2018-08-19T04:06:00.192Z,3.75
2018-08-19T04:08:39.878Z,3.65
2018-08-19T04:11:09.235Z,3.87
2018-08-19T04:13:39.611Z,3.30
2018-08-19T04:16:10.122Z,3.63
2018-08-19T04:18:44.649Z,3.40
2018-08-19T04:21:16.088Z,2.77
2018-08-19T04:23:47.238Z,4.23
2018-08-19T04:26:16.338Z,3.27
2018-08-19T04:28:46.343Z,4.43
2018-08-19T04:31:21.331Z,3.37
2018-08-19T04:33:50.656Z,3.70
2018-08-19T04:36:21.289Z,3.57
2018-08-19T04:38:51.120Z,4.03
2018-08-19T04:41:20.440Z,3.80
2018-08-19T04:43:49.814Z,4.03
2018-08-19T04:46:19.437Z,2.83
2018-08-19T04:48:49.543Z,3.60
2018-08-19T04:51:19.133Z,3.58
2018-08-19T04:53:48.905Z,3.37
2018-08-19T04:56:19.359Z,3.20
2018-08-19T04:58:49.398Z,3.37
2018-08-19T05:01:20.113Z,3.00
2018-08-19T05:03:49.605Z,2.90
2018-08-19T05:06:19.958Z,3.35
2018-08-19T05:08:49.950Z,3.08
2018-08-19T05:11:20.302Z,3.60
2018-08-19T05:13:50.092Z,3.37
2018-08-19T05:16:20.240Z,2.93
2018-08-19T05:19:02.989Z,3.05
2018-08-19T05:21:32.605Z,3.57
2018-08-19T05:24:01.899Z,3.70
2018-08-19T05:26:31.248Z,3.63
2018-08-19T05:29:11.451Z,3.13
2018-08-19T05:31:47.178Z,3.90
2018-08-19T05:34:21.848Z,3.10
2018-08-19T05:36:51.508Z,2.70
2018-08-19T05:39:21.197Z,3.63
2018-08-19T05:41:59.413Z,3.57
2018-08-19T05:44:30.003Z,3.40
2018-08-19T05:47:04.834Z,2.90
2018-08-19T05:49:35.587Z,3.80
2018-08-19T05:52:10.392Z,3.67
2018-08-19T05:54:47.852Z,2.70
2018-08-19T05:57:17.430Z,3.50
2018-08-19T05:59:49.769Z,3.20
2018-08-19T06:02:54.299Z,3.30
2018-08-19T06:05:23.619Z,3.00
2018-08-19T06:07:58.161Z,2.80
2018-08-19T06:10:27.699Z,3.17
2018-08-19T06:12:57.588Z,2.93
2018-08-19T06:15:26.907Z,3.13
2018-08-19T06:17:56.242Z,3.30
2018-08-19T06:20:27.881Z,3.43
2018-08-19T06:22:57.172Z,3.20
2018-08-19T06:25:26.538Z,3.43
2018-08-19T06:27:56.910Z,3.50
2018-08-19T06:30:26.010Z,3.30
2018-08-19T06:32:55.114Z,3.60
2018-08-19T06:35:24.440Z,2.90
2018-08-19T06:37:53.755Z,3.13
2018-08-19T06:40:23.700Z,2.97
2018-08-19T06:42:56.569Z,2.80
2018-08-19T06:45:25.917Z,3.60
2018-08-19T06:47:55.235Z,3.00
2018-08-19T06:50:28.969Z,3.87
2018-08-19T06:52:58.554Z,2.60
2018-08-19T06:55:28.474Z,3.60
2018-08-19T06:57:58.435Z,3.27
2018-08-19T07:00:29.481Z,3.17
2018-08-19T07:03:00.937Z,3.20
2018-08-19T07:05:30.549Z,2.90
2018-08-19T07:07:59.877Z,3.37
2018-08-19T07:10:34.766Z,3.33
2018-08-19T07:13:06.129Z,3.23
2018-08-19T07:15:37.241Z,2.93
2018-08-19T07:18:07.491Z,3.95
2018-08-19T07:20:36.834Z,3.33
2018-08-19T07:23:06.490Z,4.30
2018-08-19T07:25:38.952Z,4.23
2018-08-19T07:28:09.807Z,5.43
2018-08-19T07:30:39.848Z,4.90
2018-08-19T07:33:09.435Z,4.40
2018-08-19T07:35:38.973Z,4.17
2018-08-19T07:38:08.290Z,4.40
2018-08-19T07:40:37.647Z,4.90
2018-08-19T07:43:07.440Z,5.00
2018-08-19T07:45:36.997Z,4.40
2018-08-19T07:48:06.496Z,4.63
2018-08-19T07:50:36.161Z,5.00
2018-08-19T07:53:05.795Z,4.80
2018-08-19T07:55:35.344Z,5.00
2018-08-19T07:58:09.810Z,4.33
2018-08-19T08:00:42.071Z,5.23
2018-08-19T08:03:11.623Z,4.90
2018-08-19T08:05:46.895Z,5.00
2018-08-19T08:08:16.240Z,4.80
2018-08-19T08:10:45.819Z,4.50
2018-08-19T08:13:15.345Z,4.50
2018-08-19T08:15:49.482Z,4.05
2018-08-19T08:18:18.602Z,5.60
2018-08-19T08:20:47.978Z,4.87
2018-08-19T08:23:21.464Z,3.80
2018-08-19T08:25:50.783Z,4.63
2018-08-19T08:28:20.165Z,3.95
2018-08-19T08:30:49.716Z,5.17
2018-08-19T08:33:19.317Z,4.53
2018-08-19T08:35:55.012Z,5.00
2018-08-19T08:38:24.567Z,5.00
2018-08-19T08:40:54.370Z,4.90
2018-08-19T08:43:23.716Z,4.20
2018-08-19T08:45:55.158Z,4.80
2018-08-19T08:48:24.248Z,5.20
2018-08-19T08:50:53.568Z,5.23
2018-08-19T08:53:25.553Z,4.60
2018-08-19T08:55:54.589Z,4.40
2018-08-19T08:58:23.689Z,4.67
2018-08-19T09:00:52.785Z,4.70
2018-08-19T09:03:21.993Z,4.77
2018-08-19T09:05:51.204Z,4.67
2018-08-19T09:08:20.337Z,3.77
2018-08-19T09:10:49.643Z,5.20
2018-08-19T09:13:18.986Z,4.20
2018-08-19T09:15:48.303Z,4.90
2018-08-19T09:18:17.642Z,4.73
2018-08-19T09:20:46.732Z,5.60
2018-08-19T09:23:16.257Z,7.37
2018-08-19T09:25:45.642Z,6.80
2018-08-19T09:28:14.729Z,8.67
2018-08-19T09:30:44.669Z,10.50
2018-08-19T09:33:15.088Z,9.50
2018-08-19T09:35:45.019Z,10.68
2018-08-19T09:38:17.361Z,10.03
2018-08-19T09:40:47.313Z,9.93
2018-08-19T09:43:18.712Z,9.40
2018-08-19T09:45:48.651Z,9.67
2018-08-19T09:48:18.356Z,11.33
2018-08-19T09:50:47.457Z,9.27
2018-08-19T09:53:16.797Z,10.00
2018-08-19T09:55:51.538Z,9.50
2018-08-19T09:58:22.022Z,8.73
2018-08-19T10:00:56.608Z,9.93
2018-08-19T10:03:25.929Z,8.10
2018-08-19T10:05:55.503Z,9.17
2018-08-19T10:08:24.826Z,8.30
2018-08-19T10:10:54.644Z,8.57
2018-08-19T10:13:23.981Z,9.03
2018-08-19T10:15:53.532Z,10.27
2018-08-19T10:18:23.087Z,8.20
2018-08-19T10:20:52.661Z,9.20
2018-08-19T10:23:22.791Z,8.60
2018-08-19T10:25:52.332Z,9.30
2018-08-19T10:28:21.679Z,9.80
2018-08-19T10:30:55.344Z,10.60
2018-08-19T10:33:24.440Z,9.50
2018-08-19T10:35:54.137Z,8.30
2018-08-19T10:38:23.237Z,8.67
2018-08-19T10:41:07.996Z,7.93
2018-08-19T10:43:37.560Z,8.33
2018-08-19T10:46:06.955Z,8.97
2018-08-19T10:48:36.049Z,7.90
2018-08-19T10:51:05.152Z,7.50
2018-08-19T10:53:34.361Z,7.93
2018-08-19T10:56:03.907Z,8.63
2018-08-19T10:58:33.666Z,7.60
2018-08-19T11:01:03.350Z,7.93
2018-08-19T11:03:32.659Z,6.97
2018-08-19T11:06:01.993Z,8.40
2018-08-19T11:08:31.548Z,7.47
2018-08-19T11:11:01.261Z,6.77
2018-08-19T11:13:30.641Z,7.83
2018-08-19T11:15:59.989Z,8.00
2018-08-19T11:18:42.106Z,8.33
2018-08-19T11:21:17.598Z,7.37
2018-08-19T11:23:47.580Z,7.87
2018-08-19T11:26:16.890Z,7.77
2018-08-19T11:29:00.959Z,7.93
2018-08-19T11:31:30.360Z,9.40
2018-08-19T11:34:02.492Z,9.40
2018-08-19T11:36:38.090Z,9.37
2018-08-19T11:39:11.339Z,8.80
2018-08-19T11:41:40.907Z,7.85
2018-08-19T11:44:12.706Z,8.70
2018-08-19T11:46:42.274Z,9.50
2018-08-19T11:49:13.149Z,8.40
2018-08-19T11:51:45.972Z,7.70
2018-08-19T11:54:16.178Z,7.60
2018-08-19T11:56:46.412Z,8.00
2018-08-19T11:59:15.740Z,7.20
2018-08-19T12:01:45.082Z,8.07
2018-08-19T12:04:14.405Z,7.83
2018-08-19T12:06:43.719Z,7.50
2018-08-19T12:09:12.844Z,8.20
2018-08-19T12:11:42.514Z,8.05
2018-08-19T12:14:13.969Z,7.80
2018-08-19T12:16:50.700Z,8.90
2018-08-19T12:19:21.435Z,7.97
2018-08-19T12:22:05.386Z,7.73
2018-08-19T12:24:40.893Z,7.80
2018-08-19T12:27:11.816Z,8.03
2018-08-19T12:29:42.222Z,7.27
2018-08-19T12:32:17.632Z,8.38
2018-08-19T12:34:54.656Z,8.87
2018-08-19T12:37:24.986Z,8.10
2018-08-19T12:39:55.380Z,7.77
2018-08-19T12:42:25.122Z,9.90
2018-08-19T12:45:00.283Z,8.40
2018-08-19T12:47:29.483Z,7.27
2018-08-19T12:50:00.273Z,8.33
2018-08-19T12:52:30.929Z,8.67
2018-08-19T12:55:05.353Z,7.60
2018-08-19T12:57:35.524Z,9.57
2018-08-19T13:00:12.527Z,7.20
2018-08-19T13:02:43.471Z,6.43
2018-08-19T13:05:13.698Z,6.90
2018-08-19T13:07:43.057Z,7.23
2018-08-19T13:10:12.368Z,7.22
2018-08-19T13:12:47.007Z,6.50
2018-08-19T13:15:16.572Z,6.93
2018-08-19T13:17:46.117Z,7.40
2018-08-19T13:20:15.947Z,7.27
2018-08-19T13:22:51.461Z,6.67
2018-08-19T13:25:22.861Z,7.60
2018-08-19T13:27:52.235Z,6.60
2018-08-19T13:30:22.363Z,6.33
2018-08-19T13:32:51.996Z,6.87
2018-08-19T13:35:21.167Z,8.18
2018-08-19T13:37:50.920Z,8.43
2018-08-19T13:40:20.043Z,10.00
2018-08-19T13:42:49.152Z,10.63
2018-08-19T13:45:19.945Z,10.40
2018-08-19T13:47:54.143Z,11.17
2018-08-19T13:50:23.709Z,11.07
2018-08-19T13:52:53.025Z,10.47
2018-08-19T13:55:22.123Z,9.50
2018-08-19T13:57:51.275Z,10.30
2018-08-19T14:00:22.486Z,10.90
2018-08-19T14:02:51.961Z,12.20
2018-08-19T14:05:21.356Z,12.17
2018-08-19T14:07:50.931Z,12.27
2018-08-19T14:10:20.453Z,14.03
2018-08-19T14:12:49.768Z,12.83
2018-08-19T14:15:18.929Z,14.53
2018-08-19T14:17:48.280Z,13.85
2018-08-19T14:20:17.840Z,14.60
2018-08-19T14:22:47.276Z,15.40
2018-08-19T14:25:16.644Z,14.50
2018-08-19T14:27:45.964Z,12.50
2018-08-19T14:30:16.855Z,13.60
2018-08-19T14:32:47.174Z,14.13
2018-08-19T14:35:16.285Z,12.87
2018-08-19T14:37:45.381Z,12.87
2018-08-19T14:40:16.620Z,13.33
2018-08-19T14:42:46.398Z,11.30
2018-08-19T14:45:15.820Z,11.67
2018-08-19T14:47:44.909Z,11.73
2018-08-19T14:50:15.355Z,10.67
2018-08-19T14:52:44.481Z,11.70
2018-08-19T14:55:13.596Z,9.98
2018-08-19T14:57:43.135Z,11.67
2018-08-19T15:00:14.886Z,11.23
2018-08-19T15:02:44.509Z,10.50
2018-08-19T15:05:16.848Z,11.27
2018-08-19T15:07:46.794Z,11.07
2018-08-19T15:10:18.042Z,10.40
2018-08-19T15:12:47.400Z,11.20
2018-08-19T15:15:16.974Z,10.67
2018-08-19T15:17:50.801Z,9.80
2018-08-19T15:20:36.846Z,10.63
2018-08-19T15:23:16.061Z,9.00
2018-08-19T15:25:45.990Z,10.30
2018-08-19T15:28:16.205Z,10.10
2018-08-19T15:30:45.531Z,10.58
2018-08-19T15:33:15.660Z,9.97
2018-08-19T15:35:44.943Z,10.35
2018-08-19T15:38:14.514Z,13.43
2018-08-19T15:40:46.749Z,13.70
2018-08-19T15:43:16.291Z,15.13
2018-08-19T15:45:46.223Z,16.00
2018-08-19T15:48:15.555Z,14.47
2018-08-19T15:50:44.895Z,14.63
2018-08-19T15:53:16.859Z,15.60
2018-08-19T15:55:46.417Z,13.83
2018-08-19T15:58:16.014Z,15.13
2018-08-19T16:00:45.593Z,13.43
2018-08-19T16:03:15.150Z,15.03
2018-08-19T16:05:44.471Z,13.87
2018-08-19T16:08:13.811Z,14.43
2018-08-19T16:10:43.384Z,14.40
2018-08-19T16:13:12.926Z,13.67
2018-08-19T16:15:42.276Z,15.50
2018-08-19T16:18:11.368Z,13.85
2018-08-19T16:20:43.630Z,14.70
2018-08-19T16:23:12.994Z,13.53
2018-08-19T16:25:42.549Z,14.87
2018-08-19T16:28:11.868Z,12.63
2018-08-19T16:30:40.973Z,11.60
2018-08-19T16:33:10.079Z,11.63
2018-08-19T16:35:39.420Z,11.47
2018-08-19T16:38:08.759Z,10.58
2018-08-19T16:40:38.108Z,12.20
2018-08-19T16:43:07.688Z,11.40
2018-08-19T16:45:37.733Z,11.90
2018-08-19T16:48:07.671Z,10.53
2018-08-19T16:50:37.955Z,10.85
2018-08-19T16:53:07.805Z,10.70
2018-08-19T16:55:38.029Z,11.10
2018-08-19T16:58:07.917Z,11.03
2018-08-19T17:00:38.173Z,12.40
2018-08-19T17:03:26.521Z,10.95
2018-08-19T17:05:56.398Z,10.90
2018-08-19T17:08:26.208Z,10.77
2018-08-19T17:10:55.591Z,10.60
2018-08-19T17:13:24.957Z,11.00
2018-08-19T17:15:54.167Z,11.00
2018-08-19T17:18:23.434Z,10.37
2018-08-19T17:20:53.225Z,10.10
2018-08-19T17:23:23.978Z,10.87
2018-08-19T17:25:53.361Z,10.43
2018-08-19T17:28:24.092Z,10.63
2018-08-19T17:30:54.649Z,10.53
2018-08-19T17:33:29.150Z,10.82
2018-08-19T17:35:58.907Z,11.13
2018-08-19T17:38:29.731Z,10.37
2018-08-19T17:40:59.339Z,10.90
2018-08-19T17:43:34.078Z,11.27
2018-08-19T17:46:08.944Z,10.67
2018-08-19T17:48:40.628Z,10.00
2018-08-19T17:51:22.840Z,11.33
2018-08-19T17:53:52.407Z,11.40
2018-08-19T17:56:21.737Z,9.80
2018-08-19T17:58:51.351Z,10.75
2018-08-19T18:01:21.244Z,10.27
2018-08-19T18:03:51.492Z,11.10
2018-08-19T18:06:21.054Z,10.10
2018-08-19T18:08:51.732Z,9.78
2018-08-19T18:11:23.116Z,10.97
2018-08-19T18:13:52.461Z,10.80
2018-08-19T18:16:21.793Z,9.67
2018-08-19T18:18:51.488Z,10.13
2018-08-19T18:21:21.598Z,10.80
2018-08-19T18:23:51.453Z,10.03
2018-08-19T18:26:20.768Z,10.10
2018-08-19T18:28:50.126Z,9.93
2018-08-19T18:31:22.156Z,9.50
2018-08-19T18:33:59.425Z,9.85
2018-08-19T18:36:31.441Z,10.77
2018-08-19T18:39:01.364Z,10.07
2018-08-19T18:41:37.410Z,8.80
2018-08-19T18:44:08.261Z,9.13
2018-08-19T18:46:37.970Z,10.20
2018-08-19T18:49:11.281Z,10.20
2018-08-19T18:51:41.430Z,10.50
2018-08-19T18:54:16.721Z,9.33
2018-08-19T18:56:46.027Z,9.40
2018-08-19T18:59:15.944Z,9.93
2018-08-19T19:01:45.274Z,8.83
2018-08-19T19:04:14.603Z,9.20
2018-08-19T19:06:44.262Z,9.53
2018-08-19T19:09:13.832Z,8.33
2018-08-19T19:11:43.147Z,8.07
2018-08-19T19:14:16.816Z,9.10
2018-08-19T19:16:48.801Z,10.10
2018-08-19T19:19:18.112Z,8.78
2018-08-19T19:21:53.032Z,9.43
2018-08-19T19:24:29.540Z,9.00
2018-08-19T19:26:58.915Z,9.60
2018-08-19T19:29:28.967Z,10.50
2018-08-19T19:31:58.938Z,10.40
2018-08-19T19:34:30.038Z,12.13
2018-08-19T19:36:59.164Z,10.83
2018-08-19T19:39:28.681Z,10.13
2018-08-19T19:42:03.335Z,11.97
2018-08-19T19:44:33.677Z,11.47
2018-08-19T19:47:02.821Z,12.03
2018-08-19T19:49:32.219Z,11.70
2018-08-19T19:52:03.136Z,10.80
2018-08-19T19:54:34.270Z,12.97
2018-08-19T19:57:03.397Z,13.07
2018-08-19T19:59:33.961Z,11.40
2018-08-19T20:02:03.376Z,9.83
2018-08-19T20:04:35.004Z,12.03
2018-08-19T20:07:04.323Z,11.13
2018-08-19T20:09:34.487Z,12.20
2018-08-19T20:12:03.531Z,11.80
2018-08-19T20:14:37.252Z,11.70
2018-08-19T20:17:06.821Z,10.33
2018-08-19T20:19:36.356Z,10.23
2018-08-19T20:22:06.401Z,10.23
2018-08-19T20:24:35.736Z,9.83
2018-08-19T20:27:05.326Z,9.90
2018-08-19T20:29:34.860Z,10.77
2018-08-19T20:32:04.294Z,10.63
2018-08-19T20:34:33.645Z,10.47
2018-08-19T20:37:02.989Z,10.33
2018-08-19T20:39:32.080Z,9.60
2018-08-19T20:42:01.428Z,10.27
2018-08-19T20:44:30.802Z,9.80
2018-08-19T20:47:00.185Z,9.07
2018-08-19T20:49:29.742Z,10.13
2018-08-19T20:51:59.119Z,10.10
2018-08-19T20:54:28.474Z,10.50
2018-08-19T20:56:58.056Z,9.95
2018-08-19T20:59:33.120Z,8.50
2018-08-19T21:02:03.980Z,10.38
2018-08-19T21:04:33.367Z,10.27
2018-08-19T21:07:03.253Z,8.40
2018-08-19T21:09:34.349Z,9.37
2018-08-19T21:12:04.068Z,9.00
2018-08-19T21:14:33.486Z,8.80
2018-08-19T21:17:04.683Z,8.00
2018-08-19T21:19:35.044Z,8.63
2018-08-19T21:22:04.137Z,8.50
2018-08-19T21:24:33.629Z,8.03
2018-08-19T21:27:03.423Z,7.20
2018-08-19T21:29:33.183Z,8.50
2018-08-19T21:32:02.561Z,9.67
2018-08-19T21:34:31.920Z,8.13
2018-08-19T21:37:01.409Z,8.53
2018-08-19T21:39:30.503Z,8.37
2018-08-19T21:41:59.899Z,7.37
2018-08-19T21:44:29.244Z,7.37
2018-08-19T21:46:58.624Z,7.67
2018-08-19T21:49:28.169Z,8.20
2018-08-19T21:51:57.483Z,7.27
2018-08-19T21:54:27.003Z,7.70
2018-08-19T21:56:56.365Z,9.53
2018-08-19T21:59:25.784Z,7.70
2018-08-19T22:01:57.639Z,8.33
2018-08-19T22:04:27.360Z,8.00
2018-08-19T22:06:56.745Z,7.70
2018-08-19T22:09:28.057Z,7.20
2018-08-19T22:11:58.334Z,8.10
2018-08-19T22:14:27.838Z,7.30
2018-08-19T22:17:02.872Z,8.10
2018-08-19T22:19:32.468Z,8.10
2018-08-19T22:22:01.580Z,7.10
2018-08-19T22:24:30.913Z,7.50
2018-08-19T22:27:08.615Z,6.80
2018-08-19T22:29:37.934Z,6.83
2018-08-19T22:32:07.060Z,7.10
2018-08-19T22:34:36.466Z,6.63
2018-08-19T22:37:06.864Z,6.90
2018-08-19T22:39:36.380Z,7.47
2018-08-19T22:42:05.496Z,7.00
2018-08-19T22:44:34.925Z,6.00
2018-08-19T22:47:04.472Z,6.50
2018-08-19T22:49:33.799Z,6.58
2018-08-19T22:52:18.941Z,6.70
2018-08-19T22:54:50.258Z,7.00
2018-08-19T22:57:19.744Z,6.43
2018-08-19T22:59:49.052Z,6.00
2018-08-19T23:02:18.372Z,6.30
2018-08-19T23:04:47.926Z,7.00
2018-08-19T23:07:17.463Z,5.10
2018-08-19T23:09:46.744Z,6.03
2018-08-19T23:12:16.623Z,5.90
2018-08-19T23:14:57.422Z,6.67
2018-08-19T23:17:26.996Z,7.03
2018-08-19T23:19:56.572Z,6.05
2018-08-19T23:22:26.149Z,5.70
2018-08-19T23:24:55.467Z,5.90
2018-08-19T23:27:24.890Z,5.78
2018-08-19T23:29:54.078Z,4.87
2018-08-19T23:32:24.531Z,5.30
2018-08-19T23:34:53.768Z,5.10
2018-08-19T23:37:23.105Z,5.45
2018-08-19T23:39:52.653Z,4.97
2018-08-19T23:42:22.208Z,5.50
2018-08-19T23:44:51.692Z,5.60
2018-08-19T23:47:20.804Z,4.83
2018-08-19T23:49:49.876Z,5.70
2018-08-19T23:52:18.976Z,4.77
2018-08-19T23:54:48.305Z,5.20
2018-08-19T23:57:18.608Z,4.72
2018-08-19T23:59:48.511Z,5.40
